Time;durP1;ratioP1;P1;durP2;ratioP2;P2;SDS_P1;SDS_P2;PMS_P1;PMS_P2;Temp;Humidity;BMP_temperature;BMP_pressure;BME280_temperature;BME280_humidity;BME280_pressure;Samples;Min_cycle;Max_cycle;Signal;HPM_P1;HPM_P2
2022/07/08 00:00:12;;;;;;;7.35;1.27;;;16.90;99.40;;;;;;4976218;28;20233;-84
2022/07/08 00:02:39;;;;;;;4.63;1.60;;;16.80;99.70;;;;;;4977549;28;20216;-84
2022/07/08 00:05:09;;;;;;;2.88;1.30;;;16.70;99.90;;;;;;4983177;28;20216;-84
2022/07/08 00:07:37;;;;;;;2.78;1.02;;;16.60;99.90;;;;;;4993392;28;20209;-85
2022/07/08 00:10:05;;;;;;;3.35;1.40;;;16.60;99.90;;;;;;4980163;28;20244;-83
2022/07/08 00:12:33;;;;;;;2.70;1.20;;;16.70;99.90;;;;;;5003628;28;20202;-84
2022/07/08 00:15:01;;;;;;;3.90;1.60;;;16.70;99.90;;;;;;4987512;28;20196;-84
2022/07/08 00:17:28;;;;;;;4.55;1.38;;;16.70;99.90;;;;;;4990362;28;20207;-84
2022/07/08 00:19:56;;;;;;;5.03;1.40;;;16.70;99.90;;;;;;4989444;28;20231;-85
2022/07/08 00:22:24;;;;;;;4.05;1.50;;;16.50;99.90;;;;;;5000954;28;20212;-84
2022/07/08 00:24:52;;;;;;;5.82;1.75;;;16.70;99.90;;;;;;4980704;28;20202;-84
2022/07/08 00:27:20;;;;;;;8.82;1.55;;;16.60;99.90;;;;;;4994952;28;20193;-84
2022/07/08 00:29:47;;;;;;;6.28;2.00;;;16.50;99.90;;;;;;4993595;28;20221;-84
2022/07/08 00:32:15;;;;;;;6.20;1.70;;;16.50;99.90;;;;;;4981516;28;20207;-84
2022/07/08 00:34:43;;;;;;;7.28;2.22;;;16.50;99.90;;;;;;4983052;28;20205;-84
2022/07/08 00:37:10;;;;;;;3.47;1.60;;;16.60;99.90;;;;;;4982069;28;20223;-84
2022/07/08 00:39:39;;;;;;;5.32;1.75;;;16.50;99.90;;;;;;4994332;28;20224;-84
2022/07/08 00:42:07;;;;;;;5.93;1.60;;;16.50;99.90;;;;;;4994690;28;20202;-84
2022/07/08 00:44:35;;;;;;;5.20;1.60;;;16.50;99.90;;;;;;4976387;28;20201;-84
2022/07/08 00:47:02;;;;;;;5.40;1.45;;;16.50;99.90;;;;;;4980543;28;20223;-84
2022/07/08 00:49:30;;;;;;;4.38;1.38;;;16.60;99.90;;;;;;4997939;28;20231;-84
2022/07/08 00:51:58;;;;;;;5.93;1.88;;;16.50;99.90;;;;;;4980883;28;20201;-84
2022/07/08 00:54:27;;;;;;;4.43;1.30;;;16.40;99.90;;;;;;4995921;28;20205;-84
2022/07/08 00:56:57;;;;;;;4.68;1.45;;;16.40;99.90;;;;;;4983743;28;20208;-84
2022/07/08 00:59:24;;;;;;;4.03;1.75;;;16.40;99.90;;;;;;4991676;28;20217;-84
2022/07/08 01:01:52;;;;;;;4.47;1.52;;;16.40;99.90;;;;;;4978276;28;20221;-84
2022/07/08 01:04:20;;;;;;;3.35;1.63;;;16.50;99.90;;;;;;4981288;28;20208;-84
2022/07/08 01:06:47;;;;;;;3.47;1.25;;;16.40;99.90;;;;;;4982916;28;20215;-84
2022/07/08 01:09:15;;;;;;;4.43;1.70;;;16.40;99.90;;;;;;4984601;28;20231;-84
2022/07/08 01:11:45;;;;;;;6.40;2.15;;;16.30;99.90;;;;;;4982687;28;20207;-84
2022/07/08 01:14:16;;;;;;;7.22;1.80;;;16.40;99.90;;;;;;4981425;28;20220;-82
2022/07/08 01:16:43;;;;;;;6.22;1.60;;;16.40;99.90;;;;;;4992991;28;20201;-84
2022/07/08 01:19:11;;;;;;;6.07;1.92;;;16.40;99.90;;;;;;4981711;28;20220;-84
2022/07/08 01:21:40;;;;;;;4.15;1.30;;;16.50;99.90;;;;;;4993173;28;20690;-84
2022/07/08 01:24:08;;;;;;;6.32;1.73;;;16.40;99.90;;;;;;4975158;28;20201;-84
2022/07/08 01:26:36;;;;;;;7.70;1.90;;;16.40;99.90;;;;;;4992216;28;20208;-84
2022/07/08 01:29:03;;;;;;;6.18;1.30;;;16.50;99.90;;;;;;4998868;28;20229;-85
2022/07/08 01:31:31;;;;;;;4.95;1.75;;;16.60;99.90;;;;;;4996158;28;20213;-86
2022/07/08 01:33:58;;;;;;;3.17;1.20;;;16.60;99.90;;;;;;4983346;28;20205;-85
2022/07/08 01:36:26;;;;;;;2.25;1.27;;;16.50;99.90;;;;;;4981612;28;20204;-84
2022/07/08 01:38:55;;;;;;;6.18;1.42;;;16.50;99.90;;;;;;4997560;28;20584;-84
2022/07/08 01:41:22;;;;;;;4.90;1.40;;;16.50;99.90;;;;;;4975741;28;20209;-84
2022/07/08 01:43:50;;;;;;;5.60;1.40;;;16.60;99.90;;;;;;4992604;28;20197;-84
2022/07/08 01:46:17;;;;;;;9.40;1.50;;;16.60;99.90;;;;;;4990866;28;20223;-84
2022/07/08 01:48:45;;;;;;;6.32;1.52;;;16.40;99.90;;;;;;4997572;28;20245;-84
2022/07/08 01:51:13;;;;;;;6.15;1.77;;;16.40;99.90;;;;;;4999459;28;20207;-84
2022/07/08 01:53:41;;;;;;;5.57;1.70;;;16.40;99.90;;;;;;4981148;28;20591;-84
2022/07/08 01:56:09;;;;;;;4.18;1.67;;;16.40;99.90;;;;;;4986726;28;20200;-84
2022/07/08 01:58:37;;;;;;;3.75;1.80;;;16.50;99.90;;;;;;4991142;28;20227;-84
2022/07/08 02:01:06;;;;;;;5.40;1.63;;;16.40;99.90;;;;;;5005650;28;20204;-85
2022/07/08 02:03:34;;;;;;;5.32;1.65;;;16.30;99.90;;;;;;4978465;28;20197;-84
2022/07/08 02:06:01;;;;;;;6.13;1.83;;;16.30;99.90;;;;;;4985983;28;20193;-84
2022/07/08 02:08:29;;;;;;;4.50;1.52;;;16.30;99.90;;;;;;4983429;28;20610;-84
2022/07/08 02:13:43;;;;;;;5.93;1.77;;;16.30;99.90;;;;;;4989064;28;20193;-84
2022/07/08 02:16:10;;;;;;;5.38;1.88;;;16.30;99.90;;;;;;4999824;28;20201;-84
2022/07/08 02:18:38;;;;;;;4.25;1.60;;;16.20;99.90;;;;;;4998955;28;20217;-84
2022/07/08 02:21:06;;;;;;;2.38;1.50;;;16.10;99.90;;;;;;4985766;28;20201;-85
2022/07/08 02:23:34;;;;;;;4.97;1.70;;;16.10;99.90;;;;;;4984781;28;20198;-84
2022/07/08 02:26:02;;;;;;;4.20;1.70;;;16.10;99.90;;;;;;4980187;28;20212;-84
2022/07/08 02:28:29;;;;;;;4.80;2.15;;;16.10;99.90;;;;;;4974660;28;20213;-84
2022/07/08 02:30:58;;;;;;;3.85;1.40;;;16.00;99.90;;;;;;4982765;28;20200;-84
2022/07/08 02:33:26;;;;;;;4.30;1.90;;;16.10;99.90;;;;;;4996706;28;20680;-84
2022/07/08 02:35:53;;;;;;;6.10;1.75;;;15.90;99.90;;;;;;4996501;28;20197;-84
2022/07/08 02:38:21;;;;;;;4.03;1.73;;;16.00;99.90;;;;;;4983105;28;20204;-85
2022/07/08 02:40:49;;;;;;;5.43;1.55;;;16.00;99.90;;;;;;4978567;28;20652;-85
2022/07/08 02:43:16;;;;;;;4.93;2.00;;;16.00;99.90;;;;;;4978694;28;20204;-83
2022/07/08 02:45:44;;;;;;;4.07;1.52;;;15.90;99.90;;;;;;4980661;28;20200;-84
2022/07/08 02:48:13;;;;;;;7.97;1.85;;;16.00;99.90;;;;;;4983083;28;20596;-83
2022/07/08 02:50:41;;;;;;;7.20;1.70;;;16.00;99.90;;;;;;4996641;28;20224;-84
2022/07/08 02:53:08;;;;;;;4.15;1.92;;;16.00;99.90;;;;;;4986927;28;20205;-84
2022/07/08 02:55:36;;;;;;;4.55;1.77;;;16.00;99.90;;;;;;4979890;28;20208;-84
2022/07/08 02:58:03;;;;;;;6.13;1.88;;;16.00;99.90;;;;;;4982395;28;20201;-84
2022/07/08 03:00:38;;;;;;;4.22;1.65;;;15.90;99.90;;;;;;4971093;28;20201;-84
2022/07/08 03:03:06;;;;;;;5.55;2.03;;;15.90;99.90;;;;;;4986704;28;20204;-85
2022/07/08 03:05:35;;;;;;;5.28;1.73;;;15.80;99.90;;;;;;4972220;28;20213;-84
2022/07/08 03:08:02;;;;;;;9.32;2.42;;;16.00;99.90;;;;;;4979646;28;20209;-84
2022/07/08 03:10:30;;;;;;;6.75;1.90;;;15.90;99.90;;;;;;4979608;28;20221;-87
2022/07/08 03:12:58;;;;;;;6.15;2.25;;;15.90;99.90;;;;;;4983774;28;20201;-85
2022/07/08 03:15:26;;;;;;;4.70;1.52;;;15.90;99.90;;;;;;4982977;28;20205;-83
2022/07/08 03:17:53;;;;;;;5.43;1.75;;;15.90;99.90;;;;;;4979772;28;20206;-84
2022/07/08 03:20:21;;;;;;;5.95;2.10;;;15.90;99.90;;;;;;4980253;28;20224;-84
2022/07/08 03:22:50;;;;;;;3.78;1.63;;;15.90;99.90;;;;;;4981668;28;20197;-84
2022/07/08 03:25:17;;;;;;;7.53;2.03;;;15.80;99.90;;;;;;4989503;28;20206;-84
2022/07/08 03:27:45;;;;;;;2.60;1.80;;;15.90;99.90;;;;;;4982183;28;20201;-83
2022/07/08 03:30:13;;;;;;;4.38;1.50;;;15.90;99.90;;;;;;4984945;28;20220;-84
2022/07/08 03:32:40;;;;;;;8.25;2.03;;;16.00;99.90;;;;;;5000712;28;20208;-85
2022/07/08 03:35:11;;;;;;;5.20;1.83;;;15.90;99.90;;;;;;4988070;28;20694;-84
2022/07/08 03:37:41;;;;;;;5.65;2.08;;;15.90;99.90;;;;;;4973012;28;20204;-85
2022/07/08 03:42:58;;;;;;;7.65;1.88;;;16.00;99.90;;;;;;4997868;28;20723;-84
2022/07/08 03:45:25;;;;;;;7.25;2.03;;;16.00;99.90;;;;;;4989333;28;20205;-84
2022/07/08 03:47:53;;;;;;;5.95;2.38;;;16.00;99.90;;;;;;4990025;28;20208;-84
2022/07/08 03:50:21;;;;;;;6.28;2.15;;;16.00;99.90;;;;;;4980697;28;20217;-85
2022/07/08 03:52:48;;;;;;;5.22;2.15;;;16.00;99.90;;;;;;4980532;28;20197;-84
2022/07/08 03:55:17;;;;;;;6.47;1.77;;;15.90;99.90;;;;;;4980790;28;20208;-84
2022/07/08 03:57:45;;;;;;;6.53;1.70;;;16.00;99.90;;;;;;4980918;28;20598;-84
2022/07/08 04:00:13;;;;;;;6.95;2.10;;;15.90;99.90;;;;;;4996021;28;20239;-84
2022/07/08 04:02:41;;;;;;;3.78;1.55;;;15.90;99.90;;;;;;4994828;28;20196;-84
2022/07/08 04:05:09;;;;;;;5.43;1.75;;;16.00;99.90;;;;;;4983380;28;20205;-84
2022/07/08 04:07:36;;;;;;;4.50;1.40;;;16.00;99.90;;;;;;4996364;28;20205;-84
2022/07/08 04:10:04;;;;;;;8.18;1.95;;;15.90;99.90;;;;;;4983530;28;20244;-84
2022/07/08 04:12:33;;;;;;;5.78;1.60;;;15.80;99.90;;;;;;4975736;28;20661;-84
2022/07/08 04:15:01;;;;;;;6.15;1.90;;;15.80;99.90;;;;;;4982748;28;20204;-84
2022/07/08 04:17:28;;;;;;;6.38;1.98;;;15.80;99.90;;;;;;4992102;28;20212;-83
2022/07/08 04:19:56;;;;;;;4.45;1.70;;;15.80;99.90;;;;;;4993510;28;20232;-84
2022/07/08 04:22:24;;;;;;;4.13;1.50;;;15.70;99.90;;;;;;4980488;28;20601;-84
2022/07/08 04:24:52;;;;;;;6.50;1.77;;;15.80;99.90;;;;;;4991095;28;20216;-84
2022/07/08 04:27:19;;;;;;;3.35;1.65;;;15.80;99.90;;;;;;4974506;28;20212;-84
2022/07/08 04:29:48;;;;;;;7.07;2.00;;;15.90;99.90;;;;;;4978622;28;20228;-84
2022/07/08 04:32:16;;;;;;;5.57;1.80;;;15.90;99.90;;;;;;4978873;28;20203;-86
2022/07/08 04:34:43;;;;;;;4.28;1.95;;;16.00;99.90;;;;;;4976668;28;20205;-84
2022/07/08 04:37:11;;;;;;;6.13;2.30;;;15.90;99.90;;;;;;4978565;28;20201;-84
2022/07/08 04:39:39;;;;;;;5.65;2.08;;;15.80;99.90;;;;;;4983120;28;20217;-84
2022/07/08 04:42:07;;;;;;;4.28;1.60;;;15.80;99.90;;;;;;4983758;28;20197;-85
2022/07/08 04:44:34;;;;;;;5.47;1.90;;;15.80;99.90;;;;;;4977094;28;20234;-84
2022/07/08 04:47:04;;;;;;;8.05;1.58;;;15.80;99.90;;;;;;4981211;28;20216;-84
2022/07/08 04:49:31;;;;;;;5.70;1.80;;;15.90;99.90;;;;;;4983174;28;20229;-84
2022/07/08 04:51:59;;;;;;;6.35;2.00;;;15.80;99.90;;;;;;4986232;28;20211;-84
2022/07/08 04:54:26;;;;;;;6.15;2.05;;;15.80;99.90;;;;;;4996223;28;20204;-84
2022/07/08 04:56:54;;;;;;;5.03;2.00;;;15.70;99.90;;;;;;4998249;28;20200;-84
2022/07/08 04:59:21;;;;;;;4.72;1.92;;;15.80;99.90;;;;;;4991880;28;20228;-84
2022/07/08 05:01:50;;;;;;;7.72;2.30;;;15.80;99.90;;;;;;5001431;28;20212;-84
2022/07/08 05:04:19;;;;;;;7.18;2.00;;;15.80;99.90;;;;;;4995966;28;20215;-84
2022/07/08 05:06:47;;;;;;;6.60;2.10;;;15.90;99.90;;;;;;4986091;28;20219;-84
2022/07/08 05:09:15;;;;;;;4.75;2.03;;;15.90;99.90;;;;;;4976049;28;20229;-83
2022/07/08 05:11:42;;;;;;;8.98;2.30;;;15.80;99.90;;;;;;4984750;28;20219;-85
2022/07/08 05:14:13;;;;;;;7.82;2.28;;;15.80;99.90;;;;;;4997470;28;20207;-85
2022/07/08 05:16:44;;;;;;;8.15;2.38;;;15.90;99.90;;;;;;4977793;28;20213;-86
2022/07/08 05:19:12;;;;;;;5.22;2.08;;;15.90;99.90;;;;;;4983630;28;20213;-86
2022/07/08 05:21:41;;;;;;;3.40;1.77;;;16.00;99.90;;;;;;5001316;28;20208;-85
2022/07/08 05:24:09;;;;;;;5.88;2.00;;;16.00;99.90;;;;;;4977630;28;20205;-86
2022/07/08 05:26:36;;;;;;;4.30;1.95;;;16.00;99.90;;;;;;4990288;28;20595;-85
2022/07/08 05:29:04;;;;;;;7.22;2.55;;;15.90;99.90;;;;;;4992640;28;20232;-84
2022/07/08 05:31:32;;;;;;;3.53;2.08;;;16.00;99.90;;;;;;4980153;28;20236;-84
2022/07/08 05:33:59;;;;;;;4.70;1.80;;;16.10;99.90;;;;;;4984554;28;20208;-84
2022/07/08 05:36:27;;;;;;;5.38;2.05;;;16.20;99.90;;;;;;4976165;28;20201;-85
2022/07/08 05:38:56;;;;;;;5.93;1.95;;;16.30;99.90;;;;;;4978214;28;20709;-84
2022/07/08 05:41:23;;;;;;;4.82;2.25;;;16.10;99.90;;;;;;4993585;28;20563;-83
2022/07/08 05:43:51;;;;;;;5.25;1.67;;;16.10;99.90;;;;;;4975113;28;20205;-83
2022/07/08 05:46:18;;;;;;;7.03;2.17;;;16.00;99.90;;;;;;4976725;28;20214;-84
2022/07/08 05:48:46;;;;;;;6.68;2.03;;;16.00;99.90;;;;;;4978916;28;20224;-84
2022/07/08 05:51:13;;;;;;;4.40;2.30;;;16.10;99.90;;;;;;4980734;28;20208;-86
2022/07/08 05:53:41;;;;;;;4.65;2.03;;;16.10;99.90;;;;;;4987432;28;20220;-85
2022/07/08 05:56:11;;;;;;;5.32;1.83;;;16.10;99.90;;;;;;4987896;28;20196;-83
2022/07/08 05:58:38;;;;;;;6.60;1.90;;;16.30;99.90;;;;;;4984072;28;20248;-83
2022/07/08 06:01:06;;;;;;;2.92;1.52;;;16.30;99.90;;;;;;4995998;28;20209;-83
2022/07/08 06:03:33;;;;;;;4.63;1.60;;;16.30;99.90;;;;;;4985463;28;20214;-83
2022/07/08 06:06:01;;;;;;;5.88;2.13;;;16.40;99.90;;;;;;4996208;28;20216;-83
2022/07/08 06:08:28;;;;;;;6.93;2.05;;;16.60;99.90;;;;;;4982390;28;20232;-83
2022/07/08 06:10:56;;;;;;;7.38;2.10;;;16.60;99.90;;;;;;4979270;28;20229;-83
2022/07/08 06:13:25;;;;;;;5.80;1.70;;;16.60;99.90;;;;;;4982704;28;20200;-83
2022/07/08 06:15:53;;;;;;;4.72;1.73;;;16.50;99.90;;;;;;4989675;28;20194;-83
2022/07/08 06:18:21;;;;;;;6.50;1.80;;;16.50;99.90;;;;;;5008041;28;20200;-83
2022/07/08 06:20:48;;;;;;;4.97;1.63;;;16.60;99.90;;;;;;4980812;28;20198;-83
2022/07/08 06:23:16;;;;;;;7.07;2.05;;;16.60;99.90;;;;;;4986243;28;20196;-83
2022/07/08 06:25:43;;;;;;;4.40;1.90;;;16.70;99.90;;;;;;4989950;28;20216;-83
2022/07/08 06:28:11;;;;;;;7.85;1.77;;;16.60;99.90;;;;;;4976523;28;20530;-84
2022/07/08 06:30:40;;;;;;;6.22;1.35;;;16.50;99.90;;;;;;4982463;28;20233;-83
2022/07/08 06:33:07;;;;;;;5.55;1.63;;;16.30;99.90;;;;;;4973095;28;20213;-81
2022/07/08 06:35:35;;;;;;;4.00;1.63;;;16.30;99.90;;;;;;4996848;28;20206;-81
2022/07/08 06:38:02;;;;;;;5.82;2.40;;;16.50;99.90;;;;;;4991472;28;20202;-83
2022/07/08 06:40:30;;;;;;;2.75;1.30;;;16.50;99.90;;;;;;4996262;28;20220;-84
2022/07/08 06:42:58;;;;;;;7.28;2.35;;;16.50;99.90;;;;;;4986511;28;20220;-84
2022/07/08 06:45:31;;;;;;;7.30;2.60;;;16.50;99.90;;;;;;4985069;28;20228;-84
2022/07/08 06:48:05;;;;;;;7.55;2.95;;;16.60;99.90;;;;;;4996424;28;20212;-83
2022/07/08 06:50:33;;;;;;;20.13;9.52;;;16.60;99.90;;;;;;4990219;28;20207;-83
2022/07/08 06:53:01;;;;;;;7.90;3.63;;;16.90;99.90;;;;;;5012462;28;20196;-84
2022/07/08 06:55:29;;;;;;;5.47;2.00;;;17.00;99.90;;;;;;4983355;28;20204;-84
2022/07/08 06:57:57;;;;;;;6.60;2.00;;;17.10;99.90;;;;;;4981904;28;20272;-85
2022/07/08 07:00:25;;;;;;;5.65;2.22;;;17.20;99.90;;;;;;5002062;28;20228;-84
2022/07/08 07:02:58;;;;;;;7.22;2.05;;;17.20;99.90;;;;;;4982112;28;20193;-84
2022/07/08 07:05:28;;;;;;;4.97;2.50;;;17.00;99.90;;;;;;5001157;28;20201;-82
2022/07/08 07:07:55;;;;;;;4.50;2.00;;;17.30;99.90;;;;;;4987876;28;20197;-84
2022/07/08 07:10:32;;;;;;;5.13;2.17;;;17.50;99.90;;;;;;4981688;28;20233;-84
2022/07/08 07:13:02;;;;;;;8.15;1.92;;;17.50;99.90;;;;;;4977323;28;20649;-85
2022/07/08 07:15:30;;;;;;;4.90;1.80;;;17.60;99.90;;;;;;4979032;28;20204;-84
2022/07/08 07:17:59;;;;;;;5.05;2.47;;;17.30;99.90;;;;;;4980787;28;20197;-86
2022/07/08 07:20:32;;;;;;;3.10;1.33;;;17.30;99.90;;;;;;4981311;28;20220;-85
2022/07/08 07:23:00;;;;;;;5.38;1.95;;;17.40;99.90;;;;;;4984934;28;20636;-85
2022/07/08 07:25:28;;;;;;;5.20;1.88;;;17.40;99.90;;;;;;4999041;28;20201;-85
2022/07/08 07:27:55;;;;;;;3.67;1.90;;;17.20;99.90;;;;;;4987986;28;20205;-84
2022/07/08 07:30:26;;;;;;;4.95;1.80;;;17.20;99.90;;;;;;4997923;28;20232;-84
2022/07/08 07:32:59;;;;;;;3.47;2.10;;;17.30;99.90;;;;;;4979628;28;20222;-85
2022/07/08 07:35:49;;;;;;;5.72;2.15;;;17.60;99.90;;;;;;4996111;28;20193;-83
2022/07/08 07:38:20;;;;;;;5.50;2.20;;;17.80;99.90;;;;;;4978661;28;20184;-83
2022/07/08 07:40:50;;;;;;;4.30;1.90;;;17.80;99.90;;;;;;4992979;28;20205;-81
2022/07/08 07:43:24;;;;;;;7.88;2.55;;;18.30;99.90;;;;;;4981574;28;20692;-83
2022/07/08 07:45:52;;;;;;;5.05;1.70;;;18.20;99.90;;;;;;4980334;28;20216;-80
2022/07/08 07:48:19;;;;;;;7.95;3.03;;;18.20;99.90;;;;;;4991364;28;20197;-81
2022/07/08 07:50:48;;;;;;;8.27;3.00;;;18.30;99.90;;;;;;4998037;28;20201;-80
2022/07/08 07:53:16;;;;;;;8.32;3.35;;;18.60;99.80;;;;;;4988575;28;20197;-81
2022/07/08 07:55:43;;;;;;;6.85;2.80;;;18.80;99.90;;;;;;4986705;28;20208;-79
2022/07/08 07:58:11;;;;;;;5.35;2.58;;;18.80;99.90;;;;;;4985517;28;20202;-79
2022/07/08 08:00:39;;;;;;;4.97;1.83;;;18.90;98.80;;;;;;4978718;28;20216;-84
2022/07/08 08:03:07;;;;;;;3.75;1.83;;;18.70;98.80;;;;;;4984667;28;20208;-81
2022/07/08 08:05:34;;;;;;;6.13;2.00;;;18.50;99.60;;;;;;4976506;28;20571;-82
2022/07/08 08:08:04;;;;;;;6.93;1.67;;;18.70;99.80;;;;;;4981663;28;20209;-79
2022/07/08 08:10:33;;;;;;;6.22;2.42;;;18.30;99.90;;;;;;4997003;28;20996;-80
2022/07/08 08:13:00;;;;;;;4.65;1.77;;;18.30;99.90;;;;;;4985552;28;20224;-80
2022/07/08 08:15:29;;;;;;;4.35;1.80;;;18.30;99.90;;;;;;4974283;28;20200;-79
2022/07/08 08:17:57;;;;;;;3.22;1.35;;;18.30;99.90;;;;;;4985670;28;20209;-79
2022/07/08 08:20:26;;;;;;;4.00;1.67;;;18.00;99.90;;;;;;5000989;28;20228;-80
2022/07/08 08:22:54;;;;;;;4.15;1.67;;;18.10;99.90;;;;;;4986053;28;20212;-81
2022/07/08 08:25:24;;;;;;;6.88;1.80;;;18.00;99.90;;;;;;5002192;28;20201;-81
2022/07/08 08:27:51;;;;;;;3.60;1.80;;;18.10;99.90;;;;;;4984296;28;20210;-81
2022/07/08 08:30:19;;;;;;;4.47;2.33;;;18.10;99.90;;;;;;4993883;28;20227;-80
2022/07/08 08:32:46;;;;;;;8.60;1.75;;;18.20;99.90;;;;;;4981660;28;20225;-81
2022/07/08 08:35:14;;;;;;;6.38;1.80;;;18.40;99.90;;;;;;4980493;28;20261;-81
2022/07/08 08:37:42;;;;;;;4.78;2.17;;;18.60;99.10;;;;;;4979926;28;20208;-81
2022/07/08 08:40:11;;;;;;;3.15;2.70;;;18.60;99.60;;;;;;4991533;28;20225;-81
2022/07/08 08:42:41;;;;;;;3.78;1.60;;;18.60;99.90;;;;;;4980724;28;20676;-80
2022/07/08 08:45:10;;;;;;;3.85;1.55;;;18.70;99.20;;;;;;4980160;28;20212;-79
2022/07/08 08:47:38;;;;;;;4.20;2.35;;;18.70;98.50;;;;;;4977758;28;20204;-80
2022/07/08 08:52:55;;;;;;;6.15;1.88;;;18.80;98.90;;;;;;4994850;28;20231;-79
2022/07/08 08:55:27;;;;;;;3.75;2.08;;;19.00;97.70;;;;;;4988172;28;20219;-79
2022/07/08 08:57:58;;;;;;;5.00;2.03;;;18.70;97.80;;;;;;4992098;28;20209;-79
2022/07/08 09:00:27;;;;;;;3.80;2.33;;;18.80;98.50;;;;;;4979558;28;20228;-79
2022/07/08 09:02:55;;;;;;;3.38;1.75;;;18.80;98.20;;;;;;4976698;28;20644;-80
2022/07/08 09:05:25;;;;;;;6.07;1.85;;;18.90;98.50;;;;;;4995145;28;20204;-80
2022/07/08 09:07:53;;;;;;;2.78;1.70;;;18.80;98.20;;;;;;4990274;28;20204;-80
2022/07/08 09:10:20;;;;;;;5.75;2.13;;;18.70;98.10;;;;;;4971698;28;20226;-79
2022/07/08 09:13:03;;;;;;;3.90;2.17;;;18.80;97.10;;;;;;4986072;28;20230;-79
2022/07/08 09:15:32;;;;;;;4.00;1.75;;;18.80;97.40;;;;;;4991564;28;20203;-80
2022/07/08 09:18:01;;;;;;;3.15;1.48;;;18.80;97.10;;;;;;5017772;28;20200;-80
2022/07/08 09:20:41;;;;;;;6.68;1.80;;;18.90;97.10;;;;;;5005573;28;20196;-80
2022/07/08 09:23:17;;;;;;;4.40;2.40;;;19.10;97.40;;;;;;4994196;28;20201;-80
2022/07/08 09:25:47;;;;;;;5.13;1.77;;;19.20;96.60;;;;;;4988778;28;20203;-80
2022/07/08 09:28:17;;;;;;;4.28;1.70;;;19.40;96.20;;;;;;5010731;28;20219;-80
2022/07/08 09:30:45;;;;;;;5.00;1.70;;;19.50;95.90;;;;;;4988777;28;20198;-80
2022/07/08 09:33:13;;;;;;;5.18;1.60;;;19.30;95.60;;;;;;4989544;28;20221;-80
2022/07/08 09:35:43;;;;;;;4.75;1.33;;;19.20;95.90;;;;;;4991408;28;20214;-79
2022/07/08 09:38:11;;;;;;;3.55;1.85;;;19.20;96.10;;;;;;5004794;28;20219;-80
2022/07/08 09:40:39;;;;;;;3.15;1.42;;;19.40;96.10;;;;;;4995425;28;20200;-80
2022/07/08 09:43:16;;;;;;;2.42;1.45;;;19.50;96.00;;;;;;5001725;28;20212;-80
2022/07/08 09:45:44;;;;;;;2.67;1.50;;;19.50;96.40;;;;;;5002205;28;20209;-80
2022/07/08 09:48:12;;;;;;;6.38;1.80;;;19.60;96.10;;;;;;5000256;28;20197;-80
2022/07/08 09:50:41;;;;;;;3.92;1.55;;;19.50;96.00;;;;;;4979878;28;20205;-80
2022/07/08 09:53:13;;;;;;;3.92;1.63;;;19.40;95.60;;;;;;4997423;28;20233;-80
2022/07/08 09:55:43;;;;;;;3.38;1.45;;;19.50;95.80;;;;;;4994460;28;20667;-80
2022/07/08 09:58:13;;;;;;;3.90;1.20;;;19.50;95.90;;;;;;4996067;28;20201;-80
2022/07/08 10:00:43;;;;;;;2.50;1.40;;;19.40;95.40;;;;;;4996998;28;20209;-79
2022/07/08 10:03:11;;;;;;;4.93;1.50;;;19.50;95.00;;;;;;4980621;28;20204;-80
2022/07/08 10:05:40;;;;;;;3.40;1.30;;;19.80;94.70;;;;;;4998940;28;20216;-80
2022/07/08 10:08:11;;;;;;;5.32;1.90;;;20.00;95.00;;;;;;4986227;28;20192;-80
2022/07/08 10:10:40;;;;;;;9.93;2.90;;;20.00;94.60;;;;;;4983024;28;20206;-79
2022/07/08 10:13:08;;;;;;;4.47;2.35;;;20.10;94.50;;;;;;4992860;28;20224;-80
2022/07/08 10:15:38;;;;;;;4.22;1.50;;;20.00;94.40;;;;;;5004338;28;20197;-79
2022/07/08 10:18:16;;;;;;;6.38;1.92;;;20.00;95.00;;;;;;5007401;28;20189;-80
2022/07/08 10:20:48;;;;;;;4.40;1.70;;;19.90;95.60;;;;;;4984106;28;20211;-80
2022/07/08 10:23:22;;;;;;;6.65;1.98;;;20.40;94.90;;;;;;5008396;28;20219;-81
2022/07/08 10:25:55;;;;;;;4.30;2.05;;;20.40;95.00;;;;;;4997155;28;20203;-80
2022/07/08 10:28:34;;;;;;;4.00;2.20;;;20.50;94.60;;;;;;4986446;28;20201;-80
2022/07/08 10:31:01;;;;;;;3.55;1.83;;;20.60;94.90;;;;;;5000551;28;20193;-79
2022/07/08 10:33:36;;;;;;;6.70;2.05;;;20.50;94.60;;;;;;4987053;28;20221;-79
2022/07/08 10:36:06;;;;;;;5.20;2.38;;;20.70;94.90;;;;;;4983020;28;20228;-79
2022/07/08 10:38:36;;;;;;;4.45;1.98;;;20.80;95.00;;;;;;4985330;28;20217;-79
2022/07/08 10:41:07;;;;;;;3.88;1.83;;;20.70;94.50;;;;;;4979849;28;20205;-79
2022/07/08 10:43:35;;;;;;;3.67;1.77;;;20.60;94.40;;;;;;4996906;28;20205;-79
2022/07/08 10:46:12;;;;;;;3.55;1.30;;;20.40;94.20;;;;;;4982893;28;20205;-80
2022/07/08 10:48:55;;;;;;;3.63;1.60;;;20.40;94.30;;;;;;5001762;28;20228;-79
2022/07/08 10:51:50;;;;;;;5.38;2.00;;;20.40;94.20;;;;;;5002185;28;20217;-80
2022/07/08 10:54:29;;;;;;;5.93;2.05;;;20.60;94.40;;;;;;4980716;28;20217;-80
2022/07/08 10:57:00;;;;;;;2.63;1.63;;;20.60;94.20;;;;;;4997564;28;20202;-79
2022/07/08 10:59:29;;;;;;;4.07;1.65;;;20.50;94.40;;;;;;4987978;28;20227;-80
2022/07/08 11:01:59;;;;;;;4.55;1.48;;;20.50;94.40;;;;;;4991094;28;20228;-80
2022/07/08 11:04:31;;;;;;;3.30;1.75;;;20.70;94.80;;;;;;5012208;28;20205;-79
2022/07/08 11:07:25;;;;;;;6.93;2.03;;;20.60;95.20;;;;;;4988504;28;20197;-79
2022/07/08 11:09:54;;;;;;;5.10;1.77;;;20.50;96.10;;;;;;4979931;28;20232;-79
2022/07/08 11:12:25;;;;;;;4.32;1.65;;;20.50;96.10;;;;;;4992141;28;20200;-79
2022/07/08 11:14:54;;;;;;;4.40;2.05;;;20.50;96.90;;;;;;5001012;28;20197;-79
2022/07/08 11:17:23;;;;;;;4.88;1.70;;;20.60;96.60;;;;;;4991124;28;20217;-79
2022/07/08 11:19:53;;;;;;;3.78;1.73;;;20.70;96.30;;;;;;4993693;28;20230;-79
2022/07/08 11:22:22;;;;;;;5.72;2.00;;;20.70;96.00;;;;;;4982154;28;20197;-79
2022/07/08 11:24:50;;;;;;;2.88;1.42;;;20.70;96.10;;;;;;4993223;28;20197;-79
2022/07/08 11:27:22;;;;;;;3.33;1.65;;;20.70;95.60;;;;;;4992758;28;20212;-79
2022/07/08 11:29:51;;;;;;;4.70;1.55;;;20.70;95.80;;;;;;4992885;28;20625;-79
2022/07/08 11:32:20;;;;;;;2.75;1.48;;;20.90;95.70;;;;;;4990297;28;20209;-79
2022/07/08 11:34:48;;;;;;;2.90;1.40;;;20.70;95.20;;;;;;4989386;28;20221;-79
2022/07/08 11:37:17;;;;;;;3.92;1.30;;;20.70;95.00;;;;;;4998970;28;20204;-79
2022/07/08 11:39:45;;;;;;;2.33;1.27;;;20.80;94.90;;;;;;4996828;28;20228;-79
2022/07/08 11:42:14;;;;;;;2.38;1.27;;;20.90;94.90;;;;;;4979953;28;20209;-79
2022/07/08 11:44:42;;;;;;;5.10;2.40;;;21.10;95.20;;;;;;4996011;28;20196;-79
2022/07/08 11:47:14;;;;;;;4.82;1.45;;;21.00;95.20;;;;;;4980100;28;20204;-79
2022/07/08 11:49:43;;;;;;;5.18;1.60;;;21.10;95.30;;;;;;4987329;28;20240;-79
2022/07/08 11:52:11;;;;;;;4.00;1.50;;;21.20;95.40;;;;;;4989794;28;20207;-79
2022/07/08 11:54:40;;;;;;;4.53;1.25;;;21.10;95.60;;;;;;4989002;28;20220;-79
2022/07/08 11:57:08;;;;;;;6.32;1.60;;;21.00;96.60;;;;;;4997350;28;20212;-79
2022/07/08 11:59:36;;;;;;;2.90;1.50;;;21.00;96.60;;;;;;4991017;28;20225;-79
2022/07/08 12:02:06;;;;;;;3.05;1.75;;;21.30;96.00;;;;;;4994742;28;20671;-79
2022/07/08 12:04:35;;;;;;;3.10;1.48;;;21.10;95.70;;;;;;4998361;28;20212;-79
2022/07/08 12:07:03;;;;;;;4.22;1.50;;;21.20;96.40;;;;;;4991621;28;20209;-81
2022/07/08 12:09:31;;;;;;;3.50;1.25;;;21.40;96.30;;;;;;5009344;28;20226;-81
2022/07/08 12:12:06;;;;;;;3.25;1.50;;;21.30;96.10;;;;;;5005108;28;20207;-82
2022/07/08 12:14:34;;;;;;;4.75;1.80;;;21.40;96.00;;;;;;4992970;28;20209;-81
2022/07/08 12:17:02;;;;;;;4.38;2.22;;;21.60;95.70;;;;;;4978268;28;20223;-81
2022/07/08 12:19:31;;;;;;;5.38;1.88;;;21.40;95.70;;;;;;4995774;28;20597;-81
2022/07/08 12:21:59;;;;;;;4.50;1.83;;;21.40;96.30;;;;;;4968343;28;20197;-81
2022/07/08 12:24:29;;;;;;;3.30;1.80;;;21.50;96.50;;;;;;4988754;28;20202;-81
2022/07/08 12:26:58;;;;;;;4.13;1.60;;;21.60;96.60;;;;;;4973810;28;20572;-80
2022/07/08 12:29:29;;;;;;;3.90;1.58;;;21.50;96.40;;;;;;4977052;28;20217;-80
2022/07/08 12:31:57;;;;;;;3.75;1.75;;;21.10;96.30;;;;;;4976585;28;20204;-80
2022/07/08 12:34:26;;;;;;;3.45;1.60;;;21.20;97.00;;;;;;4981254;28;20690;-81
2022/07/08 12:37:13;;;;;;;4.75;1.80;;;21.20;96.70;;;;;;4976942;28;20224;-81
2022/07/08 12:39:41;;;;;;;3.17;1.83;;;21.40;96.70;;;;;;4965806;28;20561;-82
2022/07/08 12:42:09;;;;;;;5.35;2.05;;;21.50;96.50;;;;;;4986247;28;20197;-81
2022/07/08 12:44:39;;;;;;;6.90;2.35;;;21.20;97.00;;;;;;4972474;28;20193;-81
2022/07/08 12:47:09;;;;;;;3.30;1.67;;;21.80;96.70;;;;;;4978301;28;20212;-81
2022/07/08 12:49:37;;;;;;;5.10;2.10;;;22.10;96.20;;;;;;4974118;28;20223;-81
2022/07/08 12:52:07;;;;;;;3.25;2.10;;;22.10;95.80;;;;;;4981152;28;20201;-81
2022/07/08 12:54:35;;;;;;;3.58;1.90;;;22.30;96.30;;;;;;4976840;28;20245;-81
2022/07/08 12:57:04;;;;;;;4.72;2.00;;;22.30;95.70;;;;;;4978707;28;20202;-82
2022/07/08 12:59:31;;;;;;;5.07;1.90;;;22.30;95.40;;;;;;4980818;28;20580;-81
2022/07/08 13:02:01;;;;;;;5.03;2.00;;;22.20;96.00;;;;;;4983529;28;20201;-81
2022/07/08 13:04:29;;;;;;;3.85;1.70;;;22.10;96.10;;;;;;4973174;28;20208;-81